createdAt,value
2018-10-18T00:00:10.707Z,1004.39
2018-10-18T00:01:11.836Z,1004.44
2018-10-18T00:02:19.085Z,1004.38
2018-10-18T00:03:20.193Z,1004.36
2018-10-18T00:04:19.011Z,1004.38
2018-10-18T00:05:17.049Z,1004.33
2018-10-18T00:06:15.950Z,1004.38
2018-10-18T00:07:19.642Z,1004.41
2018-10-18T00:08:19.975Z,1004.36
2018-10-18T00:09:22.544Z,1004.39
2018-10-18T00:10:23.578Z,1004.47
2018-10-18T00:11:28.163Z,1004.45
2018-10-18T00:12:34.350Z,1004.38
2018-10-18T00:13:39.775Z,1004.38
2018-10-18T00:14:44.194Z,1004.41
2018-10-18T00:15:48.659Z,1004.36
2018-10-18T00:16:46.753Z,1004.41
2018-10-18T00:17:47.675Z,1004.47
2018-10-18T00:18:46.182Z,1004.5
2018-10-18T00:19:47.482Z,1004.47
2018-10-18T00:20:51.372Z,1004.5
2018-10-18T00:21:52.410Z,1004.45
2018-10-18T00:22:57.505Z,1004.53
2018-10-18T00:23:56.101Z,1004.53
2018-10-18T00:24:56.932Z,1004.51
2018-10-18T00:25:55.825Z,1004.56
2018-10-18T00:26:59.864Z,1004.56
2018-10-18T00:28:00.444Z,1004.57
2018-10-18T00:28:59.957Z,1004.57
2018-10-18T00:29:58.756Z,1004.54
2018-10-18T00:30:58.062Z,1004.63
2018-10-18T00:31:56.550Z,1004.6
2018-10-18T00:32:55.267Z,1004.62
2018-10-18T00:33:53.462Z,1004.59
2018-10-18T00:34:52.002Z,1004.59
2018-10-18T00:35:54.347Z,1004.59
2018-10-18T00:36:54.157Z,1004.57
2018-10-18T00:37:55.365Z,1004.63
2018-10-18T00:38:54.375Z,1004.54
2018-10-18T00:39:54.187Z,1004.53
2018-10-18T00:40:53.997Z,1004.51
2018-10-18T00:41:53.363Z,1004.54
2018-10-18T00:42:55.915Z,1004.6
2018-10-18T00:43:54.889Z,1004.56
2018-10-18T00:44:53.603Z,1004.56
2018-10-18T00:45:51.906Z,1004.63
2018-10-18T00:46:49.946Z,1004.64
2018-10-18T00:47:53.436Z,1004.61
2018-10-18T00:48:52.418Z,1004.67
2018-10-18T00:49:52.205Z,1004.66
2018-10-18T00:50:54.068Z,1004.75
2018-10-18T00:52:02.228Z,1004.66
2018-10-18T00:53:04.788Z,1004.7
2018-10-18T00:54:02.822Z,1004.69
2018-10-18T00:55:01.764Z,1004.69
2018-10-18T00:56:01.921Z,1004.75
2018-10-18T00:57:00.475Z,1004.73
2018-10-18T00:58:01.662Z,1004.7
2018-10-18T00:59:01.306Z,1004.72
2018-10-18T01:00:07.957Z,1004.77
2018-10-18T01:01:11.620Z,1004.72
2018-10-18T01:02:11.142Z,1004.73
2018-10-18T01:03:10.960Z,1004.76
2018-10-18T01:04:11.245Z,1004.81
2018-10-18T01:05:09.924Z,1004.83
2018-10-18T01:06:13.915Z,1004.8
2018-10-18T01:07:08.964Z,1004.81
2018-10-18T01:08:18.385Z,1004.83
2018-10-18T01:09:18.064Z,1004.84
2018-10-18T01:10:16.140Z,1004.87
2018-10-18T01:11:14.638Z,1004.87
2018-10-18T01:12:14.521Z,1004.84
2018-10-18T01:13:15.418Z,1004.78
2018-10-18T01:14:19.386Z,1004.81
2018-10-18T01:15:23.007Z,1004.78
2018-10-18T01:16:23.590Z,1004.81
2018-10-18T01:17:21.812Z,1004.81
2018-10-18T01:18:20.975Z,1004.73
2018-10-18T01:19:19.323Z,1004.78
2018-10-18T01:20:18.547Z,1004.82
2018-10-18T01:21:17.953Z,1004.85
2018-10-18T01:22:15.863Z,1004.76
2018-10-18T01:23:13.641Z,1004.75
2018-10-18T01:24:12.264Z,1004.88
2018-10-18T01:25:12.670Z,1004.85
2018-10-18T01:26:12.796Z,1004.85
2018-10-18T01:27:11.782Z,1004.88
2018-10-18T01:28:14.442Z,1004.82
2018-10-18T01:29:14.009Z,1004.9
2018-10-18T01:30:13.853Z,1004.87
2018-10-18T01:31:12.976Z,1004.87
2018-10-18T01:32:13.543Z,1004.91
2018-10-18T01:33:14.242Z,1004.94
2018-10-18T01:34:15.429Z,1004.99
2018-10-18T01:35:13.534Z,1004.91
2018-10-18T01:36:15.364Z,1005.02
2018-10-18T01:37:14.088Z,1005
2018-10-18T01:38:15.485Z,1005
2018-10-18T01:39:17.410Z,1005
2018-10-18T01:40:17.244Z,1005.02
2018-10-18T01:41:20.545Z,1004.88
2018-10-18T01:42:18.644Z,1005
2018-10-18T01:43:19.281Z,1005.05
2018-10-18T01:44:18.097Z,1005.02
2018-10-18T01:45:16.959Z,1004.97
2018-10-18T01:46:15.197Z,1005
2018-10-18T01:47:14.446Z,1005.05
2018-10-18T01:48:18.547Z,1004.97
2018-10-18T01:49:20.530Z,1005
2018-10-18T01:50:19.800Z,1005.03
2018-10-18T01:51:18.377Z,1005.02
2018-10-18T01:52:18.401Z,1005.02
2018-10-18T01:53:17.356Z,1004.94
2018-10-18T01:54:23.398Z,1005.05
2018-10-18T01:55:24.421Z,1005.02
2018-10-18T01:56:22.160Z,1004.85
2018-10-18T01:57:20.855Z,1004.93
2018-10-18T01:58:26.579Z,1004.93
2018-10-18T01:59:31.129Z,1004.97
2018-10-18T02:00:28.774Z,1004.94
2018-10-18T02:01:28.980Z,1004.93
2018-10-18T02:02:27.545Z,1004.88
2018-10-18T02:03:25.524Z,1004.9
2018-10-18T02:04:30.791Z,1004.91
2018-10-18T02:05:31.906Z,1004.88
2018-10-18T02:06:31.753Z,1004.91
2018-10-18T02:07:32.638Z,1004.93
2018-10-18T02:08:30.830Z,1004.91
2018-10-18T02:09:31.996Z,1004.96
2018-10-18T02:10:33.057Z,1004.96
2018-10-18T02:11:29.552Z,1004.97
2018-10-18T02:12:31.729Z,1004.97
2018-10-18T02:13:31.804Z,1005.03
2018-10-18T02:14:30.689Z,1005.04
2018-10-18T02:15:31.438Z,1005
2018-10-18T02:16:30.549Z,1005.03
2018-10-18T02:17:32.272Z,1005.03
2018-10-18T02:18:33.291Z,1005.02
2018-10-18T02:19:35.402Z,1005.06
2018-10-18T02:20:34.119Z,1004.94
2018-10-18T02:20:53.502Z,1005
2018-10-18T02:21:55.790Z,1005.03
2018-10-18T02:22:57.001Z,1005.04
2018-10-18T02:23:56.891Z,1005.04
2018-10-18T02:24:55.774Z,1005.02
2018-10-18T02:25:54.908Z,1005.02
2018-10-18T02:26:53.853Z,1005
2018-10-18T02:27:53.640Z,1005.16
2018-10-18T02:28:54.321Z,1005.13
2018-10-18T02:29:54.426Z,1005.06
2018-10-18T02:30:56.189Z,1005.03
2018-10-18T02:31:54.829Z,1005.1
2018-10-18T02:32:54.234Z,1005.09
2018-10-18T02:33:53.101Z,1005.06
2018-10-18T02:34:55.781Z,1005.03
2018-10-18T02:35:57.845Z,1005.03
2018-10-18T02:36:55.619Z,1005.01
2018-10-18T02:37:54.232Z,1005.03
2018-10-18T02:38:52.379Z,1005.01
2018-10-18T02:39:50.766Z,1005.07
2018-10-18T02:40:49.916Z,1005.1
2018-10-18T02:41:52.662Z,1005.06
2018-10-18T02:42:50.516Z,1005.12
2018-10-18T02:43:50.238Z,1005.1
2018-10-18T02:44:53.490Z,1005.16
2018-10-18T02:45:56.660Z,1005.12
2018-10-18T02:46:57.953Z,1005.09
2018-10-18T02:48:06.601Z,1005.09
2018-10-18T02:49:07.458Z,1005.13
2018-10-18T02:50:05.924Z,1005.13
2018-10-18T02:51:05.431Z,1005.18
2018-10-18T02:52:04.696Z,1005.13
2018-10-18T02:53:02.504Z,1005.28
2018-10-18T02:54:00.604Z,1005.18
2018-10-18T02:55:04.986Z,1005.12
2018-10-18T02:56:02.677Z,1005.16
2018-10-18T02:57:01.464Z,1005.03
2018-10-18T02:58:04.040Z,1005.15
2018-10-18T02:59:02.029Z,1005.1
2018-10-18T03:00:08.313Z,1005.1
2018-10-18T03:01:05.935Z,1005.12
2018-10-18T03:02:08.077Z,1005.18
2018-10-18T03:03:05.929Z,1005.13
2018-10-18T03:04:12.556Z,1005.07
2018-10-18T03:05:10.644Z,1005.04
2018-10-18T03:06:12.849Z,1005.12
2018-10-18T03:07:11.288Z,1005.1
2018-10-18T03:08:14.480Z,1005.04
2018-10-18T03:09:13.467Z,1005.16
2018-10-18T03:10:12.532Z,1005.13
2018-10-18T03:11:11.360Z,1005.1
2018-10-18T03:12:09.088Z,1005.12
2018-10-18T03:13:11.907Z,1005
2018-10-18T03:14:09.796Z,1005.04
2018-10-18T03:15:10.696Z,1005.07
2018-10-18T03:16:10.823Z,1005.07
2018-10-18T03:17:15.281Z,1005.03
2018-10-18T03:18:15.233Z,1005.07
2018-10-18T03:19:17.104Z,1005.09
2018-10-18T03:20:17.205Z,1005.06
2018-10-18T03:21:16.769Z,1005.09
2018-10-18T03:22:17.278Z,1005.1
2018-10-18T03:23:25.028Z,1005.12
2018-10-18T03:24:29.162Z,1005.22
2018-10-18T03:25:27.958Z,1005.19
2018-10-18T03:26:30.629Z,1005.19
2018-10-18T03:27:29.833Z,1005.22
2018-10-18T03:28:31.673Z,1005.25
2018-10-18T03:29:30.321Z,1005.15
2018-10-18T03:30:30.861Z,1005.18
2018-10-18T03:31:29.974Z,1005.25
2018-10-18T03:32:28.509Z,1005.15
2018-10-18T03:33:31.140Z,1005.23
2018-10-18T03:34:31.083Z,1005.22
2018-10-18T03:35:28.750Z,1005.26
2018-10-18T03:36:30.408Z,1005.23
2018-10-18T03:37:29.954Z,1005.31
2018-10-18T03:38:30.898Z,1005.31
2018-10-18T03:39:41.004Z,1005.31
2018-10-18T03:40:40.333Z,1005.32
2018-10-18T03:41:39.002Z,1005.37
2018-10-18T03:42:38.511Z,1005.31
2018-10-18T03:43:38.776Z,1005.35
2018-10-18T03:44:38.047Z,1005.37
2018-10-18T03:45:39.912Z,1005.31
2018-10-18T03:46:41.083Z,1005.32
2018-10-18T03:47:38.829Z,1005.38
2018-10-18T03:48:47.034Z,1005.34
2018-10-18T03:49:46.356Z,1005.32
2018-10-18T03:50:47.349Z,1005.32
2018-10-18T03:51:51.173Z,1005.38
2018-10-18T03:52:49.246Z,1005.31
2018-10-18T03:53:50.401Z,1005.34
2018-10-18T03:54:49.610Z,1005.41
2018-10-18T03:55:50.584Z,1005.34
2018-10-18T03:56:52.529Z,1005.29
2018-10-18T03:57:52.065Z,1005.44
2018-10-18T03:58:50.201Z,1005.41
2018-10-18T03:59:48.106Z,1005.38
2018-10-18T04:00:46.169Z,1005.4
2018-10-18T04:01:43.964Z,1005.4
2018-10-18T04:02:41.895Z,1005.41
2018-10-18T04:03:52.889Z,1005.41
2018-10-18T04:04:52.019Z,1005.37
2018-10-18T04:05:52.796Z,1005.37
2018-10-18T04:06:51.798Z,1005.44
2018-10-18T04:07:59.316Z,1005.46
2018-10-18T04:08:57.367Z,1005.4
2018-10-18T04:10:12.024Z,1005.43
2018-10-18T04:11:11.723Z,1005.54
2018-10-18T04:12:13.058Z,1005.41
2018-10-18T04:13:11.227Z,1005.46
2018-10-18T04:14:10.018Z,1005.46
2018-10-18T04:15:07.865Z,1005.37
2018-10-18T04:16:08.515Z,1005.38
2018-10-18T04:17:07.791Z,1005.43
2018-10-18T04:18:06.490Z,1005.38
2018-10-18T04:19:05.608Z,1005.4
2018-10-18T04:20:05.314Z,1005.41
2018-10-18T04:21:05.610Z,1005.44
2018-10-18T04:22:05.424Z,1005.37
2018-10-18T04:23:03.111Z,1005.44
2018-10-18T04:24:00.768Z,1005.43
2018-10-18T04:25:01.783Z,1005.43
2018-10-18T04:26:02.322Z,1005.47
2018-10-18T04:27:01.109Z,1005.41
2018-10-18T04:28:09.163Z,1005.43
2018-10-18T04:29:14.156Z,1005.46
2018-10-18T04:30:11.471Z,1005.41
2018-10-18T04:31:22.196Z,1005.44
2018-10-18T04:32:23.641Z,1005.38
2018-10-18T04:33:23.092Z,1005.35
2018-10-18T04:34:21.572Z,1005.43
2018-10-18T04:35:19.629Z,1005.44
2018-10-18T04:36:18.649Z,1005.4
2018-10-18T04:37:22.077Z,1005.43
2018-10-18T04:38:20.563Z,1005.43
2018-10-18T04:39:15.847Z,1005.44
2018-10-18T04:40:16.618Z,1005.44
2018-10-18T04:41:19.042Z,1005.43
2018-10-18T04:42:20.180Z,1005.42
2018-10-18T04:43:19.295Z,1005.44
2018-10-18T04:44:23.157Z,1005.48
2018-10-18T04:45:24.392Z,1005.42
2018-10-18T04:46:24.547Z,1005.47
2018-10-18T04:47:24.713Z,1005.47
2018-10-18T04:48:22.788Z,1005.56
2018-10-18T04:49:23.762Z,1005.48
2018-10-18T04:50:26.455Z,1005.51
2018-10-18T04:51:27.741Z,1005.57
2018-10-18T04:52:29.126Z,1005.56
2018-10-18T04:53:27.531Z,1005.6
2018-10-18T04:54:25.219Z,1005.56
2018-10-18T04:55:26.991Z,1005.57
2018-10-18T04:56:25.293Z,1005.6
2018-10-18T04:57:23.459Z,1005.57
2018-10-18T04:58:21.459Z,1005.62
2018-10-18T04:59:20.908Z,1005.63
2018-10-18T05:00:19.171Z,1005.65
2018-10-18T05:01:30.621Z,1005.68
2018-10-18T05:02:29.564Z,1005.59
2018-10-18T05:03:32.733Z,1005.6
2018-10-18T05:04:30.688Z,1005.63
2018-10-18T05:05:35.327Z,1005.54
2018-10-18T05:06:37.655Z,1005.53
2018-10-18T05:07:36.385Z,1005.51
2018-10-18T05:08:37.153Z,1005.5
2018-10-18T05:09:35.007Z,1005.5
2018-10-18T05:10:36.972Z,1005.5
2018-10-18T05:11:36.836Z,1005.54
2018-10-18T05:12:37.950Z,1005.48
2018-10-18T05:13:36.995Z,1005.51
2018-10-18T05:14:34.984Z,1005.5
2018-10-18T05:15:38.466Z,1005.48
2018-10-18T05:16:40.831Z,1005.48
2018-10-18T05:17:42.162Z,1005.53
2018-10-18T05:18:42.422Z,1005.56
2018-10-18T05:19:40.445Z,1005.48
2018-10-18T05:20:46.199Z,1005.57
2018-10-18T05:21:45.309Z,1005.57
2018-10-18T05:22:44.814Z,1005.69
2018-10-18T05:23:44.220Z,1005.69
2018-10-18T05:24:43.995Z,1005.6
2018-10-18T05:25:42.224Z,1005.65
2018-10-18T05:26:42.205Z,1005.57
2018-10-18T05:27:44.015Z,1005.56
2018-10-18T05:28:42.668Z,1005.65
2018-10-18T05:29:46.057Z,1005.63
2018-10-18T05:30:43.970Z,1005.6
2018-10-18T05:31:43.117Z,1005.59
2018-10-18T05:32:42.384Z,1005.62
2018-10-18T05:33:42.517Z,1005.6
2018-10-18T05:34:40.568Z,1005.63
2018-10-18T05:35:47.245Z,1005.57
2018-10-18T05:36:45.149Z,1005.66
2018-10-18T05:37:48.511Z,1005.6
2018-10-18T05:38:48.939Z,1005.62
2018-10-18T05:39:56.096Z,1005.63
2018-10-18T05:40:54.564Z,1005.65
2018-10-18T05:41:54.457Z,1005.71
2018-10-18T05:42:54.685Z,1005.65
2018-10-18T05:43:58.819Z,1005.63
2018-10-18T05:44:57.242Z,1005.65
2018-10-18T05:45:56.270Z,1005.72
2018-10-18T05:46:56.195Z,1005.69
2018-10-18T05:47:54.281Z,1005.78
2018-10-18T05:48:53.415Z,1005.75
2018-10-18T05:49:51.921Z,1005.81
2018-10-18T05:50:49.512Z,1005.86
2018-10-18T05:51:47.205Z,1005.76
2018-10-18T05:52:44.822Z,1005.87
2018-10-18T05:53:44.985Z,1005.93
2018-10-18T05:54:42.594Z,1005.79
2018-10-18T05:55:40.124Z,1005.89
2018-10-18T05:56:41.055Z,1005.89
2018-10-18T05:57:42.001Z,1005.89
2018-10-18T05:58:44.296Z,1005.81
2018-10-18T05:59:41.808Z,1005.96
2018-10-18T06:00:40.148Z,1005.9
2018-10-18T06:01:41.023Z,1005.93
2018-10-18T06:02:39.283Z,1005.93
2018-10-18T06:03:39.461Z,1006.01
2018-10-18T06:04:36.983Z,1005.87
2018-10-18T06:05:38.959Z,1005.87
2018-10-18T06:06:44.114Z,1005.93
2018-10-18T06:07:42.144Z,1005.95
2018-10-18T06:08:45.939Z,1005.93
2018-10-18T06:09:43.421Z,1005.93
2018-10-18T06:10:41.338Z,1005.99
2018-10-18T06:11:39.950Z,1005.96
2018-10-18T06:12:38.184Z,1005.98
2018-10-18T06:13:39.533Z,1006.05
2018-10-18T06:14:36.816Z,1005.92
2018-10-18T06:15:35.842Z,1005.99
2018-10-18T06:16:38.743Z,1006.01
2018-10-18T06:17:40.555Z,1005.99
2018-10-18T06:18:42.633Z,1005.96
2018-10-18T06:19:43.238Z,1005.96
2018-10-18T06:20:43.494Z,1006.02
2018-10-18T06:21:47.545Z,1006.02
2018-10-18T06:22:45.228Z,1005.98
2018-10-18T06:23:47.383Z,1005.92
2018-10-18T06:24:51.832Z,1005.92
2018-10-18T06:25:50.814Z,1005.93
2018-10-18T06:26:48.692Z,1005.96
2018-10-18T06:27:47.136Z,1005.93
2018-10-18T06:28:45.553Z,1005.98
2018-10-18T06:29:43.061Z,1005.99
2018-10-18T06:30:48.824Z,1006.02
2018-10-18T06:31:49.799Z,1005.99
2018-10-18T06:32:47.850Z,1006.02
2018-10-18T06:33:46.286Z,1005.99
2018-10-18T06:34:44.807Z,1006.02
2018-10-18T06:35:46.863Z,1006.09
2018-10-18T06:36:44.452Z,1006.06
2018-10-18T06:37:43.802Z,1006.09
2018-10-18T06:38:43.316Z,1006.08
2018-10-18T06:39:42.953Z,1006.09
2018-10-18T06:40:43.459Z,1006.02
2018-10-18T06:41:41.629Z,1006.04
2018-10-18T06:42:44.528Z,1006.04
2018-10-18T06:43:42.671Z,1006.04
2018-10-18T06:44:40.254Z,1006.06
2018-10-18T06:45:37.796Z,1006.12
2018-10-18T06:46:39.240Z,1006.02
2018-10-18T06:47:36.962Z,1006.09
2018-10-18T06:48:34.689Z,1006.14
2018-10-18T06:49:36.843Z,1006.11
2018-10-18T06:50:41.616Z,1006.15
2018-10-18T06:51:47.471Z,1006.15
2018-10-18T06:52:44.939Z,1006.09
2018-10-18T06:53:49.961Z,1006.23
2018-10-18T06:54:50.116Z,1006.18
2018-10-18T06:55:47.588Z,1006.21
2018-10-18T06:56:46.460Z,1006.15
2018-10-18T06:57:48.983Z,1006.15
2018-10-18T06:58:46.801Z,1006.18
2018-10-18T06:59:46.229Z,1006.26
2018-10-18T07:00:51.483Z,1006.2
2018-10-18T07:01:54.974Z,1006.23
2018-10-18T07:02:53.021Z,1006.23
2018-10-18T07:03:51.987Z,1006.32
2018-10-18T07:04:51.400Z,1006.24
2018-10-18T07:05:54.653Z,1006.2
2018-10-18T07:06:52.829Z,1006.21
2018-10-18T07:07:52.551Z,1006.24
2018-10-18T07:08:55.372Z,1006.29
2018-10-18T07:09:53.302Z,1006.29
2018-10-18T07:10:51.072Z,1006.26
2018-10-18T07:11:52.511Z,1006.29
2018-10-18T07:12:51.161Z,1006.3
2018-10-18T07:13:52.816Z,1006.23
2018-10-18T07:14:51.094Z,1006.29
2018-10-18T07:15:48.936Z,1006.32
2018-10-18T07:16:47.131Z,1006.32
2018-10-18T07:17:44.860Z,1006.27
2018-10-18T07:18:56.270Z,1006.24
2018-10-18T07:19:53.965Z,1006.26
2018-10-18T07:20:58.182Z,1006.32
2018-10-18T07:21:59.134Z,1006.27
2018-10-18T07:22:57.013Z,1006.27
2018-10-18T07:23:57.621Z,1006.23
2018-10-18T07:24:55.552Z,1006.26
2018-10-18T07:25:56.116Z,1006.24
2018-10-18T07:26:55.118Z,1006.29
2018-10-18T07:27:53.296Z,1006.29
2018-10-18T07:28:53.000Z,1006.34
2018-10-18T07:29:54.239Z,1006.36
2018-10-18T07:30:56.232Z,1006.32
2018-10-18T07:31:54.109Z,1006.32
2018-10-18T07:32:52.186Z,1006.36
2018-10-18T07:33:52.075Z,1006.32
2018-10-18T07:34:53.694Z,1006.34
2018-10-18T07:35:57.978Z,1006.36
2018-10-18T07:36:55.965Z,1006.32
2018-10-18T07:38:02.199Z,1006.32
2018-10-18T07:39:00.011Z,1006.37
2018-10-18T07:39:57.706Z,1006.37
2018-10-18T07:40:59.519Z,1006.31
2018-10-18T07:41:59.884Z,1006.37
2018-10-18T07:42:59.511Z,1006.48
2018-10-18T07:43:57.590Z,1006.46
2018-10-18T07:44:55.021Z,1006.47
2018-10-18T07:45:53.146Z,1006.49
2018-10-18T07:46:50.767Z,1006.49
2018-10-18T07:47:55.805Z,1006.41
2018-10-18T07:48:53.924Z,1006.45
2018-10-18T07:49:54.178Z,1006.51
2018-10-18T07:50:53.345Z,1006.56
2018-10-18T07:51:51.373Z,1006.45
2018-10-18T07:52:50.422Z,1006.52
2018-10-18T07:53:51.946Z,1006.55
2018-10-18T07:54:50.222Z,1006.58
2018-10-18T07:55:47.513Z,1006.65
2018-10-18T07:56:50.127Z,1006.64
2018-10-18T07:57:48.538Z,1006.62
2018-10-18T07:58:46.577Z,1006.64
2018-10-18T07:59:44.608Z,1006.61
2018-10-18T08:00:47.630Z,1006.65
2018-10-18T08:01:45.019Z,1006.66
2018-10-18T08:02:43.650Z,1006.62
2018-10-18T08:03:40.632Z,1006.62
2018-10-18T08:04:38.943Z,1006.56
2018-10-18T08:05:38.046Z,1006.63
2018-10-18T08:06:38.984Z,1006.69
2018-10-18T08:07:38.025Z,1006.64
2018-10-18T08:08:37.698Z,1006.66
2018-10-18T08:09:40.094Z,1006.65
2018-10-18T08:10:51.518Z,1006.64
2018-10-18T08:11:48.942Z,1006.67
2018-10-18T08:12:49.986Z,1006.62
2018-10-18T08:13:47.843Z,1006.66
2018-10-18T08:14:46.238Z,1006.63
2018-10-18T08:15:51.570Z,1006.69
2018-10-18T08:16:50.608Z,1006.69
2018-10-18T08:17:49.768Z,1006.74
2018-10-18T08:18:46.903Z,1006.66
2018-10-18T08:19:46.375Z,1006.69
2018-10-18T08:20:47.311Z,1006.73
2018-10-18T08:21:45.342Z,1006.67
2018-10-18T08:22:42.626Z,1006.72
2018-10-18T08:23:41.887Z,1006.7
2018-10-18T08:24:44.815Z,1006.72
2018-10-18T08:25:41.861Z,1006.69
2018-10-18T08:26:43.606Z,1006.71
2018-10-18T08:27:46.882Z,1006.74
2018-10-18T08:28:46.389Z,1006.7
2018-10-18T08:29:44.055Z,1006.7
2018-10-18T08:30:41.507Z,1006.68
2018-10-18T08:31:38.704Z,1006.74
2018-10-18T08:32:35.504Z,1006.71
2018-10-18T08:33:33.903Z,1006.74
2018-10-18T08:34:38.536Z,1006.74
2018-10-18T08:35:37.934Z,1006.77
2018-10-18T08:36:35.474Z,1006.8
2018-10-18T08:37:35.315Z,1006.75
2018-10-18T08:38:40.109Z,1006.74
2018-10-18T08:39:39.030Z,1006.75
2018-10-18T08:40:38.400Z,1006.8
2018-10-18T08:41:34.644Z,1006.84
2018-10-18T08:42:35.727Z,1006.81
2018-10-18T08:43:32.628Z,1006.76
2018-10-18T08:44:32.629Z,1006.88
2018-10-18T08:45:30.442Z,1006.75
2018-10-18T08:46:27.155Z,1006.84
2018-10-18T08:47:24.169Z,1006.81
2018-10-18T08:48:22.691Z,1006.81
2018-10-18T08:49:20.601Z,1006.88
2018-10-18T08:50:16.871Z,1006.81
2018-10-18T08:51:21.085Z,1006.92
2018-10-18T08:52:19.613Z,1006.89
2018-10-18T08:53:18.407Z,1006.89
2018-10-18T08:54:14.868Z,1006.91
2018-10-18T08:55:14.507Z,1006.83
2018-10-18T08:56:12.692Z,1006.85
2018-10-18T08:57:09.866Z,1006.88
2018-10-18T08:58:06.849Z,1006.95
2018-10-18T08:59:04.498Z,1006.92
2018-10-18T09:00:03.747Z,1006.85
2018-10-18T09:01:00.533Z,1006.89
2018-10-18T09:01:57.314Z,1006.91
2018-10-18T09:02:10.020Z,1006.89
2018-10-18T09:03:08.365Z,1006.94
2018-10-18T09:04:07.886Z,1006.89
2018-10-18T09:05:06.575Z,1006.92
2018-10-18T09:06:04.200Z,1006.95
2018-10-18T09:07:17.443Z,1006.96
2018-10-18T09:08:13.953Z,1006.95
2018-10-18T09:09:11.121Z,1006.9
2018-10-18T09:10:10.580Z,1006.89
2018-10-18T09:11:10.097Z,1006.99
2018-10-18T09:12:08.123Z,1006.98
2018-10-18T09:13:11.506Z,1006.84
2018-10-18T09:14:10.843Z,1006.89
2018-10-18T09:15:07.450Z,1006.9
2018-10-18T09:16:07.457Z,1006.9
2018-10-18T09:17:10.460Z,1006.9
2018-10-18T09:18:08.108Z,1006.89
2018-10-18T09:19:05.633Z,1006.95
2018-10-18T09:20:03.801Z,1006.9
2018-10-18T09:21:00.645Z,1006.96
2018-10-18T09:21:58.907Z,1006.92
2018-10-18T09:22:58.168Z,1006.96
2018-10-18T09:23:57.469Z,1006.92
2018-10-18T09:24:57.882Z,1006.94
2018-10-18T09:25:56.186Z,1006.97
2018-10-18T09:26:55.047Z,1006.89
2018-10-18T09:27:51.676Z,1006.96
2018-10-18T09:28:52.166Z,1006.89
2018-10-18T09:29:49.017Z,1006.96
2018-10-18T09:30:54.085Z,1007.01
2018-10-18T09:31:51.967Z,1006.92
2018-10-18T09:32:51.875Z,1006.92
2018-10-18T09:33:49.683Z,1006.95
2018-10-18T09:34:45.803Z,1006.99
2018-10-18T09:35:42.356Z,1006.93
2018-10-18T09:36:44.658Z,1006.92
2018-10-18T09:37:46.145Z,1006.98
2018-10-18T09:38:42.178Z,1006.96
2018-10-18T09:39:41.414Z,1006.98
2018-10-18T09:40:38.747Z,1007.01
2018-10-18T09:41:36.477Z,1007.02
2018-10-18T09:42:38.121Z,1006.95
2018-10-18T09:43:35.838Z,1006.89
2018-10-18T09:44:36.265Z,1007
2018-10-18T09:45:33.777Z,1006.98
2018-10-18T09:46:30.144Z,1006.94
2018-10-18T09:47:27.166Z,1006.95
2018-10-18T09:48:23.412Z,1006.91
2018-10-18T09:49:20.193Z,1006.96
2018-10-18T09:50:26.140Z,1006.93
2018-10-18T09:51:23.554Z,1007.05
2018-10-18T09:52:20.123Z,1007.06
2018-10-18T09:53:19.935Z,1007.02
2018-10-18T09:54:17.832Z,1006.92
2018-10-18T09:55:18.687Z,1006.96
2018-10-18T09:56:16.172Z,1006.95
2018-10-18T09:57:15.927Z,1006.95
2018-10-18T09:58:12.703Z,1007.04
2018-10-18T09:59:10.257Z,1007.06
2018-10-18T10:00:08.753Z,1007.09
2018-10-18T10:01:07.633Z,1006.97
2018-10-18T10:02:06.501Z,1007.03
2018-10-18T10:03:03.391Z,1007.09
2018-10-18T10:04:10.276Z,1007.09
2018-10-18T10:05:08.961Z,1007.07
2018-10-18T10:06:07.835Z,1007.11
2018-10-18T10:07:06.519Z,1007.06
2018-10-18T10:08:10.802Z,1007.05
2018-10-18T10:09:09.469Z,1007.02
2018-10-18T10:10:07.242Z,1007.09
2018-10-18T10:11:04.934Z,1007.02
2018-10-18T10:12:01.760Z,1007.14
2018-10-18T10:12:58.627Z,1007.1
2018-10-18T10:14:02.125Z,1007.13
2018-10-18T10:15:02.434Z,1007.13
2018-10-18T10:15:59.276Z,1007.17
2018-10-18T10:16:56.786Z,1007.11
2018-10-18T10:17:56.678Z,1007.17
2018-10-18T10:19:04.691Z,1007.13
2018-10-18T10:20:02.303Z,1007.07
2018-10-18T10:21:03.921Z,1007.13
2018-10-18T10:22:01.128Z,1007.18
2018-10-18T10:23:01.217Z,1007.21
2018-10-18T10:23:58.104Z,1007.06
2018-10-18T10:24:54.990Z,1007.21
2018-10-18T10:26:00.002Z,1007.21
2018-10-18T10:26:57.405Z,1007.18
2018-10-18T10:27:56.117Z,1007.25
2018-10-18T10:28:57.899Z,1007.19
2018-10-18T10:29:59.966Z,1007.19
2018-10-18T10:30:59.126Z,1007.2
2018-10-18T10:32:03.124Z,1007.18
2018-10-18T10:33:03.943Z,1007.17
2018-10-18T10:34:02.250Z,1007.17
2018-10-18T10:35:00.522Z,1007.09
2018-10-18T10:36:00.365Z,1007.17
2018-10-18T10:37:08.134Z,1007.14
2018-10-18T10:38:09.141Z,1007.18
2018-10-18T10:39:06.789Z,1007.15
2018-10-18T10:40:03.815Z,1007.17
2018-10-18T10:41:06.645Z,1007.14
2018-10-18T10:42:10.714Z,1007.08
2018-10-18T10:43:11.509Z,1007.1
2018-10-18T10:44:10.727Z,1007.11
2018-10-18T10:45:17.566Z,1007.14
2018-10-18T10:46:16.783Z,1007.16
2018-10-18T10:47:21.590Z,1007.13
2018-10-18T10:48:26.525Z,1007.11
2018-10-18T10:49:24.894Z,1007.13
2018-10-18T10:50:23.334Z,1007.14
2018-10-18T10:51:22.707Z,1007.07
2018-10-18T10:52:20.694Z,1007.17
2018-10-18T10:53:24.130Z,1007.09
2018-10-18T10:54:30.155Z,1007.12
2018-10-18T10:55:29.960Z,1007.1
2018-10-18T10:56:32.515Z,1007.14
2018-10-18T10:57:30.609Z,1007.07
2018-10-18T10:58:31.054Z,1007.13
2018-10-18T10:59:29.068Z,1007.07
2018-10-18T11:00:26.650Z,1007.08
2018-10-18T11:01:25.638Z,1007.01
2018-10-18T11:02:22.862Z,1007.04
2018-10-18T11:03:20.320Z,1007.02
2018-10-18T11:04:17.768Z,1007.03
2018-10-18T11:05:15.884Z,1007.03
2018-10-18T11:06:15.000Z,1007.06
2018-10-18T11:07:12.484Z,1007.02
2018-10-18T11:08:11.446Z,1007.03
2018-10-18T11:09:08.928Z,1006.97
2018-10-18T11:10:11.256Z,1007.02
2018-10-18T11:11:10.343Z,1007.01
2018-10-18T11:12:09.686Z,1006.97
2018-10-18T11:13:06.715Z,1006.91
2018-10-18T11:14:04.693Z,1006.94
2018-10-18T11:15:04.639Z,1006.97
2018-10-18T11:16:03.208Z,1006.94
2018-10-18T11:17:08.511Z,1006.95
2018-10-18T11:18:07.452Z,1007.01
2018-10-18T11:19:05.706Z,1006.92
2018-10-18T11:20:04.979Z,1006.92
2018-10-18T11:21:02.888Z,1006.85
2018-10-18T11:22:03.070Z,1006.89
2018-10-18T11:22:57.895Z,1006.97
2018-10-18T11:23:55.439Z,1006.86
2018-10-18T11:24:57.688Z,1006.94
2018-10-18T11:25:57.000Z,1006.95
2018-10-18T11:26:54.620Z,1006.93
2018-10-18T11:27:51.593Z,1006.87
2018-10-18T11:28:50.878Z,1006.89
2018-10-18T11:29:52.495Z,1006.93
2018-10-18T11:30:50.136Z,1006.86
2018-10-18T11:31:47.082Z,1006.87
2018-10-18T11:32:44.112Z,1006.81
2018-10-18T11:33:41.465Z,1006.92
2018-10-18T11:34:39.207Z,1006.8
2018-10-18T11:35:37.329Z,1006.9
2018-10-18T11:36:42.974Z,1006.81
2018-10-18T11:37:44.495Z,1006.9
2018-10-18T11:38:41.896Z,1006.9
2018-10-18T11:39:41.384Z,1006.83
2018-10-18T11:40:46.630Z,1006.84
2018-10-18T11:41:49.809Z,1006.89
2018-10-18T11:42:47.219Z,1006.9
2018-10-18T11:43:45.124Z,1006.87
2018-10-18T11:44:41.777Z,1006.77
2018-10-18T11:45:41.029Z,1006.9
2018-10-18T11:46:45.823Z,1006.9
2018-10-18T11:47:44.247Z,1006.87
2018-10-18T11:48:42.023Z,1006.8
2018-10-18T11:49:40.613Z,1006.8
2018-10-18T11:50:37.746Z,1006.83
2018-10-18T11:51:38.330Z,1006.89
2018-10-18T11:52:35.634Z,1006.88
2018-10-18T11:53:36.269Z,1006.79
2018-10-18T11:54:36.018Z,1006.86
2018-10-18T11:55:35.779Z,1006.81
2018-10-18T11:56:34.741Z,1006.84
2018-10-18T11:57:36.153Z,1006.84
2018-10-18T11:58:35.935Z,1006.81
2018-10-18T11:59:33.504Z,1006.79
2018-10-18T12:00:36.462Z,1006.79
2018-10-18T12:01:33.378Z,1006.82
2018-10-18T12:02:30.506Z,1006.81
2018-10-18T12:03:27.798Z,1006.81
2018-10-18T12:04:26.004Z,1006.75
2018-10-18T12:05:39.851Z,1006.71
2018-10-18T12:08:29.907Z,1006.73
2018-10-18T12:11:14.276Z,1006.89